Time;durP1;ratioP1;P1;durP2;ratioP2;P2;SDS_P1;SDS_P2;PMS_P1;PMS_P2;Temp;Humidity;BMP_temperature;BMP_pressure;BME280_temperature;BME280_humidity;BME280_pressure;Samples;Min_cycle;Max_cycle;Signal;HPM_P1;HPM_P2
2024/04/17 00:01:06;;;;;;;;;;;21.30;47.40;;;;;;1553520;75;678;-67
2024/04/17 00:03:08;;;;;;;;;;;21.40;47.30;;;;;;1542396;74;752;-67
2024/04/17 00:05:10;;;;;;;;;;;21.30;47.40;;;;;;1545748;74;1939;-69
2024/04/17 00:07:11;;;;;;;;;;;21.40;47.40;;;;;;1559626;75;1512;-70
2024/04/17 00:09:13;;;;;;;;;;;21.40;47.40;;;;;;1550943;74;1131;-69
2024/04/17 00:11:15;;;;;;;;;;;21.30;47.40;;;;;;1552694;74;716;-69
2024/04/17 00:13:17;;;;;;;;;;;21.30;47.50;;;;;;1552029;75;765;-66
2024/04/17 00:15:19;;;;;;;;;;;21.40;47.50;;;;;;1549781;75;754;-68
2024/04/17 00:17:21;;;;;;;;;;;21.30;47.40;;;;;;1552595;75;825;-69
2024/04/17 00:19:23;;;;;;;;;;;21.30;47.50;;;;;;1551298;74;1220;-68
2024/04/17 00:21:25;;;;;;;;;;;21.30;47.50;;;;;;1543083;75;1615;-70
2024/04/17 00:23:27;;;;;;;;;;;21.30;47.60;;;;;;1554370;75;1136;-69
2024/04/17 00:25:29;;;;;;;;;;;21.40;47.50;;;;;;1545150;75;1908;-69
2024/04/17 00:27:31;;;;;;;;;;;21.40;47.60;;;;;;1553307;75;669;-71
2024/04/17 00:29:33;;;;;;;;;;;21.40;47.50;;;;;;1555112;74;1102;-67
2024/04/17 00:31:36;;;;;;;;;;;21.40;47.60;;;;;;1548032;75;737;-68
2024/04/17 00:33:38;;;;;;;;;;;21.40;47.60;;;;;;1552023;74;790;-68
2024/04/17 00:35:40;;;;;;;;;;;21.30;47.60;;;;;;1554772;74;1607;-68
2024/04/17 00:37:42;;;;;;;;;;;21.40;47.60;;;;;;1560044;74;781;-67
2024/04/17 00:39:44;;;;;;;;;;;21.30;47.70;;;;;;1544985;74;1144;-70
2024/04/17 00:41:46;;;;;;;;;;;21.40;47.60;;;;;;1551286;74;695;-68
2024/04/17 00:43:48;;;;;;;;;;;21.30;47.70;;;;;;1545599;74;1922;-67
2024/04/17 00:45:50;;;;;;;;;;;21.40;47.80;;;;;;1558872;74;762;-70
2024/04/17 00:47:52;;;;;;;;;;;21.30;47.80;;;;;;1557710;75;664;-68
2024/04/17 00:49:54;;;;;;;;;;;21.30;47.70;;;;;;1552308;74;1539;-69
2024/04/17 00:51:56;;;;;;;;;;;21.30;47.80;;;;;;1547472;74;759;-69
2024/04/17 00:53:58;;;;;;;;;;;21.30;47.80;;;;;;1554418;75;803;-70
2024/04/17 00:55:59;;;;;;;;;;;21.30;47.80;;;;;;1543951;75;767;-70
2024/04/17 00:58:02;;;;;;;;;;;21.40;47.80;;;;;;1550026;74;814;-70
2024/04/17 01:00:04;;;;;;;;;;;21.40;47.90;;;;;;1549133;74;1129;-68
2024/04/17 01:02:06;;;;;;;;;;;21.30;47.90;;;;;;1562955;74;741;-69
2024/04/17 01:04:08;;;;;;;;;;;21.30;47.90;;;;;;1541100;74;1939;-70
2024/04/17 01:06:10;;;;;;;;;;;21.30;47.90;;;;;;1553578;75;610;-69
2024/04/17 01:08:12;;;;;;;;;;;21.40;47.90;;;;;;1556860;75;746;-71
2024/04/17 01:10:15;;;;;;;;;;;21.30;47.90;;;;;;1557613;74;1105;-68
2024/04/17 01:12:16;;;;;;;;;;;21.30;48.00;;;;;;1544231;75;732;-69
2024/04/17 01:14:18;;;;;;;;;;;21.40;47.90;;;;;;1542132;75;735;-72
2024/04/17 01:16:20;;;;;;;;;;;21.30;48.00;;;;;;1550897;75;1557;-65
2024/04/17 01:18:22;;;;;;;;;;;21.30;48.00;;;;;;1552400;74;737;-66
2024/04/17 01:20:24;;;;;;;;;;;21.30;48.00;;;;;;1551505;75;1125;-70
2024/04/17 01:22:26;;;;;;;;;;;21.30;48.00;;;;;;1556568;75;665;-68
2024/04/17 01:24:28;;;;;;;;;;;21.30;48.00;;;;;;1548739;74;1943;-68
2024/04/17 01:26:29;;;;;;;;;;;21.30;48.00;;;;;;1541395;75;809;-69
2024/04/17 01:28:31;;;;;;;;;;;21.40;48.00;;;;;;1551183;74;708;-70
2024/04/17 01:30:33;;;;;;;;;;;21.30;48.00;;;;;;1546547;75;1586;-70
2024/04/17 01:32:35;;;;;;;;;;;21.20;47.90;;;;;;1553479;74;770;-68
2024/04/17 01:34:37;;;;;;;;;;;21.40;48.10;;;;;;1551945;74;761;-67
2024/04/17 01:36:39;;;;;;;;;;;21.30;48.10;;;;;;1546604;75;691;-67
2024/04/17 01:38:41;;;;;;;;;;;21.40;48.10;;;;;;1550233;75;713;-68
2024/04/17 01:40:43;;;;;;;;;;;21.30;48.10;;;;;;1547156;75;1068;-72
2024/04/17 01:42:45;;;;;;;;;;;21.30;48.10;;;;;;1537682;75;604;-68
2024/04/17 01:44:46;;;;;;;;;;;21.40;48.10;;;;;;1552686;74;1926;-69
2024/04/17 01:46:48;;;;;;;;;;;21.40;48.10;;;;;;1548577;75;765;-71
2024/04/17 01:48:50;;;;;;;;;;;21.40;48.10;;;;;;1555916;75;1120;-66
2024/04/17 01:50:52;;;;;;;;;;;21.30;48.10;;;;;;1547432;74;812;-66
2024/04/17 01:52:54;;;;;;;;;;;21.40;48.10;;;;;;1554509;75;803;-68
2024/04/17 01:54:56;;;;;;;;;;;21.30;48.20;;;;;;1539548;75;685;-69
2024/04/17 01:56:58;;;;;;;;;;;21.30;48.10;;;;;;1548273;74;743;-67
2024/04/17 01:59:00;;;;;;;;;;;21.30;48.20;;;;;;1552359;74;1339;-68
2024/04/17 02:01:05;;;;;;;;;;;21.30;48.10;;;;;;1559907;74;720;-68
2024/04/17 02:03:09;;;;;;;;;;;21.30;48.20;;;;;;1546785;75;831;-73
2024/04/17 02:05:10;;;;;;;;;;;21.40;48.20;;;;;;1553262;75;1930;-69
2024/04/17 02:07:12;;;;;;;;;;;21.30;48.20;;;;;;1548911;75;674;-69
2024/04/17 02:09:14;;;;;;;;;;;21.30;48.20;;;;;;1552827;75;1115;-71
2024/04/17 02:11:16;;;;;;;;;;;21.40;48.30;;;;;;1549265;75;757;-68
2024/04/17 02:13:18;;;;;;;;;;;21.30;48.30;;;;;;1547946;76;1571;-68
2024/04/17 02:15:19;;;;;;;;;;;21.30;48.30;;;;;;1537725;75;736;-69
2024/04/17 02:17:21;;;;;;;;;;;21.30;48.30;;;;;;1550847;75;713;-70
2024/04/17 02:19:23;;;;;;;;;;;21.30;48.30;;;;;;1555748;75;1104;-71
2024/04/17 02:21:25;;;;;;;;;;;21.30;48.40;;;;;;1553651;75;755;-70
2024/04/17 02:23:29;;;;;;;;;;;21.30;48.30;;;;;;1542237;75;729;-71
2024/04/17 02:25:31;;;;;;;;;;;21.30;48.30;;;;;;1548532;75;1926;-69
2024/04/17 02:27:33;;;;;;;;;;;21.30;48.30;;;;;;1547796;75;1592;-70
2024/04/17 02:29:35;;;;;;;;;;;21.30;48.40;;;;;;1559261;74;1119;-71
2024/04/17 02:31:37;;;;;;;;;;;21.30;48.40;;;;;;1558352;75;757;-67
2024/04/17 02:33:39;;;;;;;;;;;21.40;48.40;;;;;;1541904;75;725;-68
2024/04/17 02:35:41;;;;;;;;;;;21.30;48.40;;;;;;1553598;75;676;-72
2024/04/17 02:37:42;;;;;;;;;;;21.30;48.40;;;;;;1549416;74;675;-71
2024/04/17 02:39:45;;;;;;;;;;;21.40;48.40;;;;;;1553051;75;1129;-69
2024/04/17 02:41:47;;;;;;;;;;;21.30;48.40;;;;;;1549228;74;1539;-74
2024/04/17 02:43:48;;;;;;;;;;;21.30;48.40;;;;;;1544525;75;761;-71
2024/04/17 02:45:50;;;;;;;;;;;21.30;48.30;;;;;;1538055;75;1943;-73
2024/04/17 02:47:52;;;;;;;;;;;21.30;48.40;;;;;;1550575;76;732;-68
2024/04/17 02:49:54;;;;;;;;;;;21.30;48.40;;;;;;1552556;75;1158;-68
2024/04/17 02:51:56;;;;;;;;;;;21.30;48.40;;;;;;1548423;75;613;-69
2024/04/17 02:53:58;;;;;;;;;;;21.30;48.40;;;;;;1557741;76;765;-69
2024/04/17 02:56:00;;;;;;;;;;;21.30;48.50;;;;;;1547403;74;1366;-68
2024/04/17 02:58:02;;;;;;;;;;;21.30;48.50;;;;;;1541810;75;787;-72
2024/04/17 03:00:04;;;;;;;;;;;21.40;48.50;;;;;;1557420;75;1185;-67
2024/04/17 03:02:05;;;;;;;;;;;21.30;48.50;;;;;;1556127;74;813;-72
2024/04/17 03:04:07;;;;;;;;;;;21.30;48.50;;;;;;1557081;75;748;-67
2024/04/17 03:06:09;;;;;;;;;;;21.40;48.50;;;;;;1555949;75;1928;-68
2024/04/17 03:08:11;;;;;;;;;;;21.30;48.50;;;;;;1542355;75;627;-71
2024/04/17 03:10:13;;;;;;;;;;;21.30;48.60;;;;;;1552627;75;1348;-73
2024/04/17 03:12:15;;;;;;;;;;;21.30;48.60;;;;;;1508176;77;608;-74
2024/04/17 03:14:17;;;;;;;;;;;21.30;48.60;;;;;;1515345;77;751;-71
2024/04/17 03:16:19;;;;;;;;;;;21.30;48.60;;;;;;1506585;76;710;-69
2024/04/17 03:18:21;;;;;;;;;;;21.30;48.60;;;;;;1513189;76;675;-70
2024/04/17 03:20:23;;;;;;;;;;;21.40;48.70;;;;;;1518031;77;1151;-71
2024/04/17 03:22:25;;;;;;;;;;;21.40;48.80;;;;;;1495856;78;692;-68
2024/04/17 03:24:26;;;;;;;;;;;21.30;48.90;;;;;;1519093;76;1633;-67
2024/04/17 03:26:28;;;;;;;;;;;21.30;48.90;;;;;;1495045;78;1945;-68
2024/04/17 03:28:30;;;;;;;;;;;21.30;49.10;;;;;;1492795;79;801;-69
2024/04/17 03:30:32;;;;;;;;;;;21.40;49.20;;;;;;1489761;79;1166;-69
2024/04/17 03:32:34;;;;;;;;;;;21.30;49.20;;;;;;1540693;74;600;-70
2024/04/17 03:34:36;;;;;;;;;;;21.30;49.40;;;;;;1563849;75;797;-73
2024/04/17 03:36:38;;;;;;;;;;;21.30;49.30;;;;;;1551825;75;754;-71
2024/04/17 03:38:40;;;;;;;;;;;21.30;49.40;;;;;;1551081;75;1299;-68
2024/04/17 03:40:42;;;;;;;;;;;21.30;49.50;;;;;;1560488;74;1068;-68
2024/04/17 03:42:43;;;;;;;;;;;21.40;49.50;;;;;;1545370;74;665;-69
2024/04/17 03:44:45;;;;;;;;;;;21.40;49.60;;;;;;1551908;74;1938;-68
2024/04/17 03:46:47;;;;;;;;;;;21.30;49.60;;;;;;1546989;75;671;-72
2024/04/17 03:48:49;;;;;;;;;;;21.40;49.60;;;;;;1551699;75;642;-70
2024/04/17 03:50:51;;;;;;;;;;;21.30;49.70;;;;;;1560271;75;816;-71
2024/04/17 03:52:53;;;;;;;;;;;21.30;49.70;;;;;;1552310;74;1631;-69
2024/04/17 03:54:55;;;;;;;;;;;21.30;49.60;;;;;;1556533;74;721;-69
2024/04/17 03:56:57;;;;;;;;;;;21.30;49.60;;;;;;1540578;74;810;-67
2024/04/17 03:58:58;;;;;;;;;;;21.30;49.70;;;;;;1550431;75;1184;-70
2024/04/17 04:01:00;;;;;;;;;;;21.40;49.70;;;;;;1552494;75;666;-67
2024/04/17 04:03:02;;;;;;;;;;;21.30;49.70;;;;;;1554682;75;665;-68
2024/04/17 04:05:04;;;;;;;;;;;21.40;49.70;;;;;;1555219;75;1952;-70
2024/04/17 04:07:06;;;;;;;;;;;21.30;49.70;;;;;;1543419;74;806;-67
2024/04/17 04:09:08;;;;;;;;;;;21.30;49.70;;;;;;1551072;75;1149;-71
2024/04/17 04:11:10;;;;;;;;;;;21.30;49.70;;;;;;1558750;75;747;-69
2024/04/17 04:13:12;;;;;;;;;;;21.30;49.70;;;;;;1555154;75;671;-68
2024/04/17 04:15:14;;;;;;;;;;;21.40;49.70;;;;;;1548741;75;655;-68
2024/04/17 04:17:16;;;;;;;;;;;21.30;49.60;;;;;;1558441;75;751;-72
2024/04/17 04:19:19;;;;;;;;;;;21.40;49.60;;;;;;1549557;75;1386;-70
2024/04/17 04:21:21;;;;;;;;;;;21.30;49.50;;;;;;1544917;75;719;-75
2024/04/17 04:23:23;;;;;;;;;;;21.40;49.50;;;;;;1550644;75;688;-72
2024/04/17 04:25:25;;;;;;;;;;;21.40;49.40;;;;;;1544736;75;1928;-74
2024/04/17 04:27:27;;;;;;;;;;;21.40;49.40;;;;;;1554499;75;666;-70
2024/04/17 04:29:29;;;;;;;;;;;21.30;49.60;;;;;;1549153;75;1145;-67
2024/04/17 04:31:31;;;;;;;;;;;21.40;49.70;;;;;;1552253;74;726;-67
2024/04/17 04:33:32;;;;;;;;;;;21.30;49.70;;;;;;1551734;75;1553;-70
2024/04/17 04:35:35;;;;;;;;;;;21.30;49.80;;;;;;1551490;74;684;-70
2024/04/17 04:37:37;;;;;;;;;;;21.40;49.80;;;;;;1565918;75;585;-67
2024/04/17 04:39:39;;;;;;;;;;;21.40;49.90;;;;;;1549983;75;1145;-73
2024/04/17 04:41:41;;;;;;;;;;;21.30;49.80;;;;;;1552587;74;661;-68
2024/04/17 04:43:43;;;;;;;;;;;21.40;50.00;;;;;;1542782;74;785;-72
2024/04/17 04:45:44;;;;;;;;;;;21.30;50.00;;;;;;1539133;75;1932;-75
2024/04/17 04:47:46;;;;;;;;;;;21.40;50.00;;;;;;1552821;74;1574;-69
2024/04/17 04:49:48;;;;;;;;;;;21.30;50.10;;;;;;1545818;75;1136;-71
2024/04/17 04:51:50;;;;;;;;;;;21.30;50.20;;;;;;1548800;75;784;-69
2024/04/17 04:53:52;;;;;;;;;;;21.40;50.20;;;;;;1550737;74;792;-69
2024/04/17 04:56:01;;;;;;;;;;;21.30;50.10;;;;;;1555022;75;731;-72
2024/04/17 04:58:03;;;;;;;;;;;21.40;50.30;;;;;;1545551;75;690;-69
2024/04/17 05:00:05;;;;;;;;;;;21.40;50.20;;;;;;1555272;75;1165;-67
2024/04/17 05:02:07;;;;;;;;;;;21.30;50.20;;;;;;1547033;74;1385;-68
2024/04/17 05:04:09;;;;;;;;;;;21.40;50.10;;;;;;1551498;74;620;-68
2024/04/17 05:06:11;;;;;;;;;;;21.40;50.10;;;;;;1550554;75;1943;-73
2024/04/17 05:08:13;;;;;;;;;;;21.30;50.20;;;;;;1546358;75;707;-68
2024/04/17 05:10:15;;;;;;;;;;;21.30;49.90;;;;;;1544305;74;1137;-69
2024/04/17 05:12:17;;;;;;;;;;;21.40;50.00;;;;;;1552551;75;719;-69
2024/04/17 05:14:18;;;;;;;;;;;21.30;50.00;;;;;;1552159;75;635;-70
2024/04/17 05:16:20;;;;;;;;;;;21.30;50.00;;;;;;1552273;74;1572;-67
2024/04/17 05:18:22;;;;;;;;;;;21.30;50.00;;;;;;1549649;74;728;-69
2024/04/17 05:20:25;;;;;;;;;;;21.30;50.10;;;;;;1546136;74;1087;-71
2024/04/17 05:22:27;;;;;;;;;;;21.30;50.00;;;;;;1558649;74;681;-71
2024/04/17 05:24:29;;;;;;;;;;;21.30;50.00;;;;;;1553039;74;714;-65
2024/04/17 05:26:32;;;;;;;;;;;21.20;49.90;;;;;;1545874;75;1963;-68
2024/04/17 05:28:34;;;;;;;;;;;21.30;50.00;;;;;;1548841;74;830;-68
2024/04/17 05:30:36;;;;;;;;;;;21.30;50.00;;;;;;1548052;74;1484;-74
2024/04/17 05:32:38;;;;;;;;;;;21.30;50.00;;;;;;1545746;75;659;-73
2024/04/17 05:34:40;;;;;;;;;;;21.30;50.00;;;;;;1541267;75;694;-69
2024/04/17 05:36:42;;;;;;;;;;;21.30;50.00;;;;;;1556953;75;621;-68
2024/04/17 05:38:44;;;;;;;;;;;21.30;49.90;;;;;;1552408;75;686;-69
2024/04/17 05:40:46;;;;;;;;;;;21.30;50.00;;;;;;1556167;75;1055;-69
2024/04/17 05:42:48;;;;;;;;;;;21.20;49.80;;;;;;1546404;75;662;-68
2024/04/17 05:44:49;;;;;;;;;;;21.30;50.00;;;;;;1559196;74;1560;-68
2024/04/17 05:46:51;;;;;;;;;;;21.30;49.90;;;;;;1551939;75;1949;-69
2024/04/17 05:48:53;;;;;;;;;;;21.20;49.80;;;;;;1562940;75;1167;-73
2024/04/17 05:50:55;;;;;;;;;;;21.20;49.80;;;;;;1552913;75;710;-74
2024/04/17 05:52:57;;;;;;;;;;;21.30;49.90;;;;;;1546272;74;686;-69
2024/04/17 05:54:59;;;;;;;;;;;21.30;49.80;;;;;;1554144;75;732;-67
2024/04/17 05:57:01;;;;;;;;;;;21.30;49.80;;;;;;1553422;75;800;-68
2024/04/17 05:59:03;;;;;;;;;;;21.30;49.80;;;;;;1549385;74;1380;-67
2024/04/17 06:01:04;;;;;;;;;;;21.20;49.70;;;;;;1557231;75;767;-71
2024/04/17 06:03:06;;;;;;;;;;;21.20;49.60;;;;;;1549935;75;655;-69
2024/04/17 06:05:08;;;;;;;;;;;21.20;49.60;;;;;;1552425;75;640;-70
2024/04/17 06:07:10;;;;;;;;;;;21.20;49.60;;;;;;1544566;75;1936;-67
2024/04/17 06:09:12;;;;;;;;;;;21.20;49.50;;;;;;1549352;75;1145;-69
2024/04/17 06:11:14;;;;;;;;;;;21.20;49.60;;;;;;1547978;75;676;-69
2024/04/17 06:13:16;;;;;;;;;;;21.20;49.50;;;;;;1549190;74;1398;-68
2024/04/17 06:15:18;;;;;;;;;;;21.20;49.50;;;;;;1544967;75;664;-69
2024/04/17 06:17:20;;;;;;;;;;;21.20;49.50;;;;;;1544771;75;691;-71
2024/04/17 06:19:22;;;;;;;;;;;21.20;49.50;;;;;;1556735;75;1078;-70
2024/04/17 06:21:23;;;;;;;;;;;21.20;49.50;;;;;;1555476;75;648;-72
2024/04/17 06:23:25;;;;;;;;;;;21.20;49.40;;;;;;1557527;75;676;-70
2024/04/17 06:25:27;;;;;;;;;;;21.20;49.40;;;;;;1554360;76;671;-73
2024/04/17 06:27:29;;;;;;;;;;;21.20;49.40;;;;;;1560000;74;1943;-68
2024/04/17 06:29:31;;;;;;;;;;;21.20;49.40;;;;;;1549899;76;1143;-69
2024/04/17 06:31:33;;;;;;;;;;;21.20;49.30;;;;;;1558232;75;680;-69
2024/04/17 06:33:35;;;;;;;;;;;21.10;49.40;;;;;;1552276;75;762;-68
2024/04/17 06:35:37;;;;;;;;;;;21.20;49.40;;;;;;1550710;74;741;-68
2024/04/17 06:37:38;;;;;;;;;;;21.20;49.30;;;;;;1555509;75;738;-71
2024/04/17 06:39:40;;;;;;;;;;;21.20;49.30;;;;;;1554559;74;1157;-68
2024/04/17 06:41:42;;;;;;;;;;;21.20;49.30;;;;;;1554023;74;1165;-67
2024/04/17 06:43:44;;;;;;;;;;;21.20;49.30;;;;;;1545725;74;776;-67
2024/04/17 06:45:46;;;;;;;;;;;21.20;49.20;;;;;;1545353;75;827;-69
2024/04/17 06:47:48;;;;;;;;;;;21.30;49.40;;;;;;1557780;75;1915;-70
2024/04/17 06:49:50;;;;;;;;;;;21.10;49.20;;;;;;1549286;74;1161;-68
2024/04/17 06:51:52;;;;;;;;;;;21.10;49.20;;;;;;1556579;75;687;-69
2024/04/17 06:53:54;;;;;;;;;;;21.10;49.20;;;;;;1549997;75;1349;-70
2024/04/17 06:55:56;;;;;;;;;;;21.10;49.20;;;;;;1557983;74;791;-69
2024/04/17 06:57:58;;;;;;;;;;;21.20;49.10;;;;;;1556718;75;963;-71
2024/04/17 07:00:00;;;;;;;;;;;21.20;49.10;;;;;;1548483;74;1102;-71
2024/04/17 07:02:02;;;;;;;;;;;21.20;49.10;;;;;;1553295;74;590;-69
2024/04/17 07:04:04;;;;;;;;;;;21.20;49.10;;;;;;1543782;74;733;-68
2024/04/17 07:06:06;;;;;;;;;;;21.10;49.10;;;;;;1552201;75;2102;-69
2024/04/17 07:08:08;;;;;;;;;;;21.10;49.10;;;;;;1538292;75;1548;-69
2024/04/17 07:10:10;;;;;;;;;;;21.20;49.10;;;;;;1554837;75;1185;-69
2024/04/17 07:12:13;;;;;;;;;;;21.20;49.10;;;;;;1546435;75;677;-71
2024/04/17 07:14:15;;;;;;;;;;;21.20;49.00;;;;;;1547541;74;703;-75
2024/04/17 07:16:18;;;;;;;;;;;21.10;49.00;;;;;;1555030;74;758;-68
2024/04/17 07:18:20;;;;;;;;;;;21.10;49.00;;;;;;1557943;75;804;-71
2024/04/17 07:20:22;;;;;;;;;;;21.20;49.00;;;;;;1554006;75;1104;-69
2024/04/17 07:22:24;;;;;;;;;;;21.20;49.00;;;;;;1546574;75;1536;-74
2024/04/17 07:24:26;;;;;;;;;;;21.20;48.90;;;;;;1543303;75;760;-71
2024/04/17 07:26:27;;;;;;;;;;;21.10;48.90;;;;;;1557161;75;1936;-68
2024/04/17 07:28:29;;;;;;;;;;;21.20;48.90;;;;;;1556533;74;651;-68
2024/04/17 07:30:31;;;;;;;;;;;21.20;48.90;;;;;;1555020;75;1125;-73
2024/04/17 07:32:33;;;;;;;;;;;21.10;48.90;;;;;;1543420;75;785;-68
2024/04/17 07:34:35;;;;;;;;;;;21.10;48.90;;;;;;1534412;75;850;-69
2024/04/17 07:36:37;;;;;;;;;;;21.10;48.90;;;;;;1550201;75;1578;-68
2024/04/17 07:38:39;;;;;;;;;;;21.10;48.90;;;;;;1552313;74;775;-70
2024/04/17 07:40:41;;;;;;;;;;;21.20;48.90;;;;;;1548040;74;1113;-69
2024/04/17 07:42:43;;;;;;;;;;;21.10;48.90;;;;;;1553746;75;838;-73
2024/04/17 07:44:47;;;;;;;;;;;21.20;48.90;;;;;;1556099;75;675;-71
2024/04/17 07:46:49;;;;;;;;;;;21.10;48.80;;;;;;1545904;75;1933;-68
2024/04/17 07:48:50;;;;;;;;;;;21.10;48.80;;;;;;1558624;75;651;-68
2024/04/17 07:50:52;;;;;;;;;;;21.20;48.90;;;;;;1560037;74;1614;-67
2024/04/17 07:52:54;;;;;;;;;;;21.10;48.80;;;;;;1554300;74;895;-71
2024/04/17 07:54:56;;;;;;;;;;;21.10;48.90;;;;;;1558297;75;811;-68
2024/04/17 07:56:58;;;;;;;;;;;21.10;48.80;;;;;;1549493;74;813;-70
2024/04/17 07:59:00;;;;;;;;;;;21.10;48.80;;;;;;1554253;74;1122;-72
2024/04/17 08:01:02;;;;;;;;;;;21.10;48.80;;;;;;1556197;75;627;-73
2024/04/17 08:03:04;;;;;;;;;;;21.20;48.80;;;;;;1553244;74;745;-68
2024/04/17 08:05:07;;;;;;;;;;;21.10;48.80;;;;;;1556634;74;1482;-70
2024/04/17 08:07:09;;;;;;;;;;;21.20;48.80;;;;;;1551155;74;1895;-70
2024/04/17 08:09:11;;;;;;;;;;;21.10;48.80;;;;;;1540076;75;1207;-72
2024/04/17 08:11:12;;;;;;;;;;;21.20;48.70;;;;;;1550484;75;754;-69
2024/04/17 08:13:17;;;;;;;;;;;21.20;48.80;;;;;;1539567;74;611;-68
2024/04/17 08:15:21;;;;;;;;;;;21.20;48.70;;;;;;1556053;74;709;-72
2024/04/17 08:17:23;;;;;;;;;;;21.20;48.70;;;;;;1548884;75;719;-68
2024/04/17 08:19:25;;;;;;;;;;;21.20;48.70;;;;;;1554676;74;1564;-70
2024/04/17 08:21:28;;;;;;;;;;;21.10;48.70;;;;;;1548444;75;687;-68
2024/04/17 08:23:30;;;;;;;;;;;21.20;48.70;;;;;;1549921;75;636;-69
2024/04/17 08:25:32;;;;;;;;;;;21.10;48.60;;;;;;1546496;75;561;-69
2024/04/17 08:27:34;;;;;;;;;;;21.20;48.60;;;;;;1545100;74;1948;-71
2024/04/17 08:29:36;;;;;;;;;;;21.20;48.60;;;;;;1546066;75;1135;-67
2024/04/17 08:31:38;;;;;;;;;;;21.20;48.60;;;;;;1551319;75;728;-67
2024/04/17 08:33:39;;;;;;;;;;;21.10;48.60;;;;;;1548247;75;1259;-69
2024/04/17 08:35:41;;;;;;;;;;;21.10;48.60;;;;;;1545944;74;854;-72
2024/04/17 08:37:43;;;;;;;;;;;21.10;48.60;;;;;;1548244;75;722;-74
2024/04/17 08:39:45;;;;;;;;;;;21.20;48.50;;;;;;1551276;76;1157;-68
2024/04/17 08:41:48;;;;;;;;;;;21.20;48.60;;;;;;1556417;75;664;-74
2024/04/17 08:43:50;;;;;;;;;;;21.10;48.50;;;;;;1550272;75;737;-71
2024/04/17 08:45:58;;;;;;;;;;;21.20;48.50;;;;;;1557475;75;730;-69
2024/04/17 08:47:56;;;;;;;;;;;21.10;48.50;;;;;;1546138;74;1936;-69
2024/04/17 08:49:58;;;;;;;;;;;21.20;48.40;;;;;;1545460;75;1172;-70
2024/04/17 08:52:01;;;;;;;;;;;21.10;48.50;;;;;;1539850;75;558;-69
2024/04/17 08:54:03;;;;;;;;;;;21.20;48.40;;;;;;1549012;76;657;-74
2024/04/17 08:56:05;;;;;;;;;;;21.10;48.40;;;;;;1555653;75;689;-69
2024/04/17 08:58:07;;;;;;;;;;;21.10;48.40;;;;;;1549741;74;675;-69
2024/04/17 09:00:09;;;;;;;;;;;21.10;48.40;;;;;;1551934;75;1141;-67
2024/04/17 09:02:13;;;;;;;;;;;21.10;48.40;;;;;;1545700;74;1579;-74
2024/04/17 09:04:14;;;;;;;;;;;21.20;48.40;;;;;;1553213;74;908;-70
2024/04/17 09:06:16;;;;;;;;;;;21.10;48.40;;;;;;1552233;75;709;-68
2024/04/17 09:08:18;;;;;;;;;;;21.10;48.40;;;;;;1545381;74;1912;-71
2024/04/17 09:10:20;;;;;;;;;;;21.10;48.30;;;;;;1558513;74;1183;-68
2024/04/17 09:12:22;;;;;;;;;;;21.10;48.30;;;;;;1556714;74;714;-68
2024/04/17 09:14:24;;;;;;;;;;;21.10;48.30;;;;;;1544092;76;688;-68
2024/04/17 09:16:26;;;;;;;;;;;21.10;48.40;;;;;;1501716;76;692;-69
2024/04/17 09:18:31;;;;;;;;;;;21.10;48.40;;;;;;1556009;75;689;-68
2024/04/17 09:20:34;;;;;;;;;;;21.10;48.30;;;;;;1551793;74;1119;-68
2024/04/17 09:22:36;;;;;;;;;;;21.10;48.30;;;;;;1539017;75;719;-68
2024/04/17 09:24:40;;;;;;;;;;;21.10;48.30;;;;;;1555169;75;740;-68
2024/04/17 09:26:42;;;;;;;;;;;21.10;48.30;;;;;;1553859;74;578;-69
2024/04/17 09:28:44;;;;;;;;;;;21.10;48.20;;;;;;1541470;75;1933;-72
2024/04/17 09:30:48;;;;;;;;;;;21.20;48.20;;;;;;1541781;75;1099;-68
2024/04/17 09:32:50;;;;;;;;;;;21.10;48.30;;;;;;1537994;75;685;-71
2024/04/17 09:34:52;;;;;;;;;;;21.10;48.30;;;;;;1556332;75;798;-68
2024/04/17 09:36:54;;;;;;;;;;;21.20;48.30;;;;;;1556047;75;727;-70
2024/04/17 09:38:56;;;;;;;;;;;21.20;48.40;;;;;;1556988;75;1113;-68
2024/04/17 09:40:58;;;;;;;;;;;21.10;48.30;;;;;;1554691;75;729;-66
2024/04/17 09:43:00;;;;;;;;;;;21.20;48.20;;;;;;1547189;75;1362;-70
2024/04/17 09:45:02;;;;;;;;;;;21.20;48.20;;;;;;1552950;75;677;-70
2024/04/17 09:47:05;;;;;;;;;;;21.20;48.20;;;;;;1552872;75;1930;-68
2024/04/17 09:49:08;;;;;;;;;;;21.20;48.20;;;;;;1556941;75;1150;-69
2024/04/17 09:51:11;;;;;;;;;;;21.20;48.20;;;;;;1544724;75;1854;-68
2024/04/17 09:53:13;;;;;;;;;;;21.20;48.10;;;;;;1558894;74;674;-68
2024/04/17 09:55:14;;;;;;;;;;;21.10;48.20;;;;;;1551222;74;750;-69
2024/04/17 09:57:16;;;;;;;;;;;21.10;48.10;;;;;;1546982;75;1518;-67
2024/04/17 09:59:19;;;;;;;;;;;21.20;48.20;;;;;;1545646;75;1154;-70
2024/04/17 10:01:21;;;;;;;;;;;21.20;48.20;;;;;;1547714;75;798;-73
2024/04/17 10:03:23;;;;;;;;;;;21.20;48.10;;;;;;1551740;74;647;-68
2024/04/17 10:05:25;;;;;;;;;;;21.20;48.10;;;;;;1554563;75;642;-69
2024/04/17 10:07:28;;;;;;;;;;;21.20;48.10;;;;;;1549724;75;1905;-74
2024/04/17 10:09:29;;;;;;;;;;;21.20;48.10;;;;;;1558503;75;1154;-72
2024/04/17 10:11:31;;;;;;;;;;;21.20;48.10;;;;;;1544229;75;1292;-73
2024/04/17 10:13:34;;;;;;;;;;;21.20;48.10;;;;;;1544430;74;760;-72
2024/04/17 10:15:36;;;;;;;;;;;21.10;48.10;;;;;;1555609;74;670;-70
2024/04/17 10:17:38;;;;;;;;;;;21.20;48.10;;;;;;1546173;76;992;-71
2024/04/17 10:19:42;;;;;;;;;;;21.10;48.10;;;;;;1548474;74;1094;-68
2024/04/17 10:21:43;;;;;;;;;;;21.20;48.00;;;;;;1559883;75;1720;-73
2024/04/17 10:23:45;;;;;;;;;;;21.10;48.00;;;;;;1549715;75;686;-67
2024/04/17 10:25:51;;;;;;;;;;;21.20;48.00;;;;;;1556280;75;1561;-70
2024/04/17 10:27:52;;;;;;;;;;;21.10;48.10;;;;;;1557252;74;1920;-71
2024/04/17 10:29:56;;;;;;;;;;;21.20;48.00;;;;;;1552592;75;1134;-71
2024/04/17 10:32:05;;;;;;;;;;;21.20;48.10;;;;;;1543644;75;963;-69
2024/04/17 10:34:07;;;;;;;;;;;21.10;48.00;;;;;;1551235;76;805;-72
2024/04/17 10:36:10;;;;;;;;;;;21.20;48.10;;;;;;1554025;75;771;-74
2024/04/17 10:38:12;;;;;;;;;;;21.20;48.00;;;;;;1545113;75;668;-68
2024/04/17 10:40:15;;;;;;;;;;;21.10;48.10;;;;;;1548653;74;1629;-68
2024/04/17 10:42:17;;;;;;;;;;;21.10;48.00;;;;;;1553813;75;685;-68
2024/04/17 10:44:21;;;;;;;;;;;21.10;48.00;;;;;;1558800;74;781;-69
2024/04/17 10:46:23;;;;;;;;;;;21.20;48.00;;;;;;1557947;75;693;-72
2024/04/17 10:48:25;;;;;;;;;;;21.20;48.00;;;;;;1559249;75;1931;-69
2024/04/17 10:50:27;;;;;;;;;;;21.20;48.00;;;;;;1548710;74;1101;-71
2024/04/17 10:52:30;;;;;;;;;;;21.20;48.00;;;;;;1550355;75;687;-75
2024/04/17 10:54:35;;;;;;;;;;;21.20;48.00;;;;;;1555161;75;1564;-73
2024/04/17 10:56:41;;;;;;;;;;;21.20;47.90;;;;;;1549618;75;797;-68
2024/04/17 10:58:40;;;;;;;;;;;21.20;47.90;;;;;;1539931;75;1229;-70
2024/04/17 11:00:42;;;;;;;;;;;21.20;47.90;;;;;;1556725;75;1106;-71
2024/04/17 11:02:44;;;;;;;;;;;21.20;47.90;;;;;;1540905;75;659;-71
2024/04/17 11:04:46;;;;;;;;;;;21.20;47.90;;;;;;1541903;75;754;-69
2024/04/17 11:06:49;;;;;;;;;;;21.10;47.90;;;;;;1548534;74;737;-69
2024/04/17 11:08:52;;;;;;;;;;;21.20;47.90;;;;;;1552753;74;1904;-75
2024/04/17 11:10:56;;;;;;;;;;;21.20;47.90;;;;;;1559742;75;823;-70
2024/04/17 11:12:58;;;;;;;;;;;21.10;47.80;;;;;;1554351;76;776;-66
2024/04/17 11:15:01;;;;;;;;;;;21.10;47.80;;;;;;1551346;75;799;-67
2024/04/17 11:17:03;;;;;;;;;;;21.20;47.90;;;;;;1545700;75;729;-69
2024/04/17 11:19:05;;;;;;;;;;;21.10;47.80;;;;;;1543582;75;1152;-71
2024/04/17 11:21:09;;;;;;;;;;;21.10;47.80;;;;;;1551890;74;750;-67
2024/04/17 11:23:11;;;;;;;;;;;21.20;47.80;;;;;;1544637;75;1427;-67
2024/04/17 11:25:15;;;;;;;;;;;21.20;47.80;;;;;;1555583;75;729;-68
2024/04/17 11:27:17;;;;;;;;;;;21.20;47.80;;;;;;1552802;75;748;-68
2024/04/17 11:29:20;;;;;;;;;;;21.10;47.80;;;;;;1543622;75;1914;-69
2024/04/17 11:31:22;;;;;;;;;;;21.20;47.80;;;;;;1547681;75;728;-71
2024/04/17 11:33:26;;;;;;;;;;;21.20;47.80;;;;;;1548763;75;795;-72
2024/04/17 11:35:27;;;;;;;;;;;21.20;47.80;;;;;;1559194;75;1623;-73
2024/04/17 11:37:29;;;;;;;;;;;21.20;47.80;;;;;;1555807;74;1560;-70
2024/04/17 11:39:31;;;;;;;;;;;21.20;47.80;;;;;;1539648;75;1229;-74
2024/04/17 11:41:33;;;;;;;;;;;21.20;47.80;;;;;;1551760;75;812;-68
2024/04/17 11:43:35;;;;;;;;;;;21.20;47.80;;;;;;1545210;74;788;-66
2024/04/17 11:45:36;;;;;;;;;;;21.20;47.80;;;;;;1542025;74;659;-69
2024/04/17 11:47:39;;;;;;;;;;;21.20;47.80;;;;;;1560145;76;788;-69
2024/04/17 11:49:41;;;;;;;;;;;21.20;47.70;;;;;;1552501;75;1112;-70
2024/04/17 11:51:43;;;;;;;;;;;21.20;47.70;;;;;;1549555;74;1607;-68
2024/04/17 11:53:45;;;;;;;;;;;21.10;47.70;;;;;;1554564;74;688;-68
2024/04/17 11:55:46;;;;;;;;;;;21.20;47.70;;;;;;1547595;75;684;-71
2024/04/17 11:57:48;;;;;;;;;;;21.20;47.70;;;;;;1546892;75;717;-71
2024/04/17 11:59:50;;;;;;;;;;;21.20;47.80;;;;;;1556560;75;1149;-68
2024/04/17 12:01:53;;;;;;;;;;;21.10;47.70;;;;;;1549406;75;610;-68
2024/04/17 12:03:55;;;;;;;;;;;21.10;47.70;;;;;;1544943;74;736;-71
2024/04/17 12:05:57;;;;;;;;;;;21.10;47.70;;;;;;1546422;75;1552;-73
2024/04/17 12:07:59;;;;;;;;;;;21.20;47.70;;;;;;1551706;75;1927;-70